Time;durP1;ratioP1;P1;durP2;ratioP2;P2;SDS_P1;SDS_P2;PMS_P1;PMS_P2;Temp;Humidity;BMP_temperature;BMP_pressure;BME280_temperature;BME280_humidity;BME280_pressure;Samples;Min_cycle;Max_cycle;Signal;HPM_P1;HPM_P2
2022/07/01 00:00:57;;;;;;;6.67;4.87;;;;;;;23.43;63.79;97046.09;5082746;28;20342;-72
2022/07/01 00:03:24;;;;;;;5.70;4.93;;;;;;;23.33;63.58;97037.38;5074723;28;20606;-72
2022/07/01 00:05:51;;;;;;;8.33;6.07;;;;;;;23.29;63.91;97039.47;5037389;28;20208;-72
2022/07/01 00:08:18;;;;;;;6.93;4.97;;;;;;;23.14;64.18;97040.94;5070874;28;20227;-72
2022/07/01 00:10:45;;;;;;;6.37;5.77;;;;;;;22.67;65.60;97035.88;5062064;28;20211;-72
2022/07/01 00:13:12;;;;;;;5.83;4.97;;;;;;;22.14;67.26;97033.75;5076179;28;20196;-73
2022/07/01 00:15:39;;;;;;;8.60;5.57;;;;;;;21.85;68.71;97043.50;5081006;28;20199;-72
2022/07/01 00:18:06;;;;;;;6.80;5.83;;;;;;;21.64;69.74;97048.03;5086313;28;20192;-73
2022/07/01 00:20:33;;;;;;;8.07;5.90;;;;;;;21.50;70.65;97037.91;5087069;28;20186;-72
2022/07/01 00:23:00;;;;;;;10.00;6.33;;;;;;;21.36;71.21;97025.13;5078652;28;20271;-73
2022/07/01 00:25:27;;;;;;;5.83;5.23;;;;;;;21.60;70.70;97036.09;5077271;28;20200;-72
2022/07/01 00:27:54;;;;;;;7.03;5.37;;;;;;;21.93;69.56;97030.44;5065969;28;20259;-72
2022/07/01 00:30:21;;;;;;;8.57;5.40;;;;;;;22.11;68.85;97036.69;5050103;28;20210;-72
2022/07/01 00:32:48;;;;;;;6.83;5.80;;;;;;;21.93;69.38;97030.44;5070929;28;20203;-71
2022/07/01 00:35:15;;;;;;;6.80;5.50;;;;;;;21.32;71.37;97034.28;5052979;28;20674;-71
2022/07/01 00:37:43;;;;;;;6.10;5.50;;;;;;;20.96;72.54;97028.59;5055901;28;20194;-71
2022/07/01 00:40:12;;;;;;;13.17;6.70;;;;;;;20.60;74.13;97031.81;5073737;28;20208;-71
2022/07/01 00:42:40;;;;;;;9.20;6.07;;;;;;;20.43;75.14;97032.41;5085649;28;20196;-71
2022/07/01 00:45:09;;;;;;;11.23;6.00;;;;;;;20.58;74.73;97028.47;5082239;28;20196;-71
2022/07/01 00:47:37;;;;;;;10.60;6.20;;;;;;;20.65;74.63;97020.88;5054334;28;20529;-71
2022/07/01 00:50:11;;;;;;;6.57;5.93;;;;;;;20.62;74.70;97035.13;5069902;28;20616;-71
2022/07/01 00:52:40;;;;;;;9.73;6.27;;;;;;;20.75;73.93;97025.19;5068936;28;20195;-72
2022/07/01 00:55:10;;;;;;;9.57;6.40;;;;;;;20.86;73.08;97029.53;5087829;28;20214;-72
2022/07/01 00:57:38;;;;;;;10.70;6.60;;;;;;;20.89;72.98;97022.22;5076646;28;20196;-72
2022/07/01 01:00:12;;;;;;;9.07;5.67;;;;;;;21.06;72.45;97016.31;5077580;28;20200;-72
2022/07/01 01:02:39;;;;;;;7.07;6.27;;;;;;;21.12;71.98;97011.50;5066738;28;20211;-72
2022/07/01 01:05:08;;;;;;;9.70;6.20;;;;;;;21.29;71.21;97018.75;5063739;28;20238;-72
2022/07/01 01:07:36;;;;;;;8.97;5.83;;;;;;;21.74;69.70;97012.78;5076452;28;20197;-72
2022/07/01 01:10:03;;;;;;;7.47;5.70;;;;;;;22.02;68.20;97008.50;5058661;28;20286;-72
2022/07/01 01:12:30;;;;;;;8.00;6.47;;;;;;;22.26;67.38;97006.22;5052809;28;20280;-72
2022/07/01 01:14:57;;;;;;;10.93;6.03;;;;;;;22.30;67.07;97007.59;5067265;28;20247;-72
2022/07/01 01:17:24;;;;;;;7.23;6.20;;;;;;;22.27;66.82;97007.91;5072665;28;20236;-71
2022/07/01 01:19:53;;;;;;;7.80;5.87;;;;;;;22.35;66.65;97010.66;5050552;28;20603;-72
2022/07/01 01:22:20;;;;;;;10.90;6.63;;;;;;;22.59;66.01;96997.00;5075061;28;20200;-72
2022/07/01 01:24:47;;;;;;;9.90;6.23;;;;;;;22.66;65.84;97000.72;5086840;28;20704;-71
2022/07/01 01:27:16;;;;;;;6.67;6.00;;;;;;;22.73;65.42;97000.97;5059078;28;20194;-72
2022/07/01 01:29:43;;;;;;;6.60;5.97;;;;;;;22.77;65.07;97007.63;5061064;28;20258;-72
2022/07/01 01:32:10;;;;;;;8.97;6.83;;;;;;;22.67;65.31;97005.84;5081684;28;20196;-72
2022/07/01 01:34:39;;;;;;;8.50;6.73;;;;;;;22.67;65.53;97004.22;5071935;28;20199;-72
2022/07/01 01:37:07;;;;;;;10.27;7.00;;;;;;;22.60;65.87;97012.72;5084342;28;20238;-72
2022/07/01 01:39:37;;;;;;;9.50;6.83;;;;;;;22.79;65.21;97013.59;5076010;28;20217;-72
2022/07/01 01:42:05;;;;;;;12.20;8.20;;;;;;;22.77;65.22;97008.47;5082431;28;20718;-71
2022/07/01 01:44:33;;;;;;;10.70;6.70;;;;;;;22.76;65.21;97005.94;5080559;28;20687;-72
2022/07/01 01:47:01;;;;;;;11.07;6.30;;;;;;;22.70;65.28;97015.28;5075414;28;20193;-71
2022/07/01 01:49:28;;;;;;;7.80;6.40;;;;;;;22.67;65.19;97014.75;5075408;28;20325;-71
2022/07/01 01:51:59;;;;;;;11.50;6.60;;;;;;;22.63;65.19;97017.69;5083344;28;20199;-71
2022/07/01 01:54:27;;;;;;;7.33;6.63;;;;;;;22.46;65.13;97030.78;5072720;28;20285;-71
2022/07/01 01:56:54;;;;;;;6.50;5.90;;;;;;;22.00;66.01;97026.28;5069659;28;21076;-72
2022/07/01 01:59:21;;;;;;;7.03;6.27;;;;;;;21.89;66.63;97026.41;5056549;28;20198;-72
2022/07/01 02:01:48;;;;;;;8.70;6.50;;;;;;;21.26;68.41;97009.31;5076014;28;20198;-71
2022/07/01 02:04:15;;;;;;;6.83;6.13;;;;;;;21.09;69.37;97017.88;5050719;28;20614;-71
2022/07/01 02:06:42;;;;;;;9.87;6.20;;;;;;;20.79;70.48;97026.59;5084252;28;20257;-71
2022/07/01 02:09:09;;;;;;;8.53;6.70;;;;;;;20.53;71.93;97024.53;5076464;28;20245;-71
2022/07/01 02:11:36;;;;;;;8.73;6.90;;;;;;;20.36;73.04;97017.28;5074756;28;20247;-71
2022/07/01 02:14:04;;;;;;;7.87;6.90;;;;;;;20.25;73.61;97026.09;5071062;28;20207;-71
2022/07/01 02:16:31;;;;;;;10.67;7.07;;;;;;;20.22;74.35;97026.31;5061966;28;20199;-71
2022/07/01 02:18:58;;;;;;;9.63;7.30;;;;;;;20.29;73.74;97024.84;5071733;28;20200;-71
2022/07/01 02:21:26;;;;;;;8.53;6.53;;;;;;;20.46;73.04;97024.25;5078716;28;20197;-71
2022/07/01 02:23:53;;;;;;;8.23;6.40;;;;;;;20.58;72.22;97028.47;5073525;28;20193;-71
2022/07/01 02:26:20;;;;;;;7.70;6.90;;;;;;;20.55;72.86;97026.09;5084227;28;20569;-71
2022/07/01 02:28:47;;;;;;;7.87;5.83;;;;;;;20.56;73.15;97038.28;5085150;28;20220;-72
2022/07/01 02:31:14;;;;;;;6.63;5.97;;;;;;;20.56;73.31;97037.44;5073099;28;20201;-71
2022/07/01 02:33:42;;;;;;;10.97;6.30;;;;;;;20.71;72.86;97034.31;5079448;28;20283;-72
2022/07/01 02:36:09;;;;;;;8.40;5.90;;;;;;;20.84;72.53;97036.72;5062553;28;20233;-72
2022/07/01 02:38:36;;;;;;;8.33;5.87;;;;;;;20.93;72.19;97034.16;5075044;28;20192;-72
2022/07/01 02:41:03;;;;;;;6.80;5.83;;;;;;;20.74;72.48;97023.53;5070803;28;20261;-72
2022/07/01 02:43:30;;;;;;;9.30;6.17;;;;;;;20.86;72.57;97042.69;5077947;28;20683;-71
2022/07/01 02:45:58;;;;;;;17.23;7.00;;;;;;;20.80;72.74;97038.81;5083883;28;20208;-72
2022/07/01 02:48:25;;;;;;;8.80;7.30;;;;;;;20.86;72.47;97045.34;5066506;28;20192;-71
2022/07/01 02:50:52;;;;;;;10.60;7.63;;;;;;;20.67;72.81;97043.44;5078307;28;20208;-71
2022/07/01 02:53:19;;;;;;;11.23;8.03;;;;;;;20.47;73.26;97038.22;5074073;28;20192;-71
2022/07/01 02:55:46;;;;;;;8.17;6.80;;;;;;;20.33;73.59;97036.78;5060580;28;20222;-71
2022/07/01 02:58:13;;;;;;;8.00;7.23;;;;;;;20.54;72.80;97031.50;5084137;28;20672;-71
2022/07/01 03:00:40;;;;;;;7.77;6.63;;;;;;;20.57;72.18;97039.94;5076091;28;20189;-72
2022/07/01 03:03:07;;;;;;;8.73;6.90;;;;;;;20.70;71.72;97043.19;5074339;28;20189;-72
2022/07/01 03:05:34;;;;;;;11.10;7.20;;;;;;;20.56;71.83;97040.94;5082839;28;20192;-71
2022/07/01 03:08:01;;;;;;;10.00;7.10;;;;;;;20.28;72.63;97044.22;5068117;28;20197;-71
2022/07/01 03:10:28;;;;;;;7.50;6.57;;;;;;;20.35;72.48;97053.28;5051013;28;20234;-71
2022/07/01 03:12:55;;;;;;;8.30;7.23;;;;;;;20.14;73.31;97055.03;5072752;28;20250;-70
2022/07/01 03:15:22;;;;;;;7.77;6.70;;;;;;;20.17;73.17;97046.91;5073927;28;20254;-71
2022/07/01 03:17:49;;;;;;;9.17;6.70;;;;;;;20.39;72.30;97048.56;5066723;28;20197;-71
2022/07/01 03:20:17;;;;;;;8.37;6.83;;;;;;;20.53;72.29;97049.06;5048462;28;20185;-71
2022/07/01 03:22:45;;;;;;;8.17;6.07;;;;;;;20.69;71.19;97046.78;5065924;28;20232;-71
2022/07/01 03:25:13;;;;;;;7.40;6.50;;;;;;;20.86;70.75;97051.44;5085299;28;20189;-71
2022/07/01 03:27:44;;;;;;;7.17;6.20;;;;;;;21.01;69.87;97052.75;5078896;28;20197;-71
2022/07/01 03:30:14;;;;;;;10.43;7.30;;;;;;;20.54;71.26;97049.91;5087005;28;20220;-72
2022/07/01 03:32:41;;;;;;;7.60;6.50;;;;;;;20.29;72.37;97048.53;5072587;28;20294;-72
2022/07/01 03:37:55;;;;;;;7.50;6.80;;;;;;;20.21;72.99;97043.09;5066808;28;20249;-72
2022/07/01 03:40:23;;;;;;;9.60;8.00;;;;;;;20.20;73.28;97039.63;5066342;28;20279;-71
2022/07/01 03:42:50;;;;;;;9.73;7.40;;;;;;;20.19;73.15;97044.97;5066855;28;20215;-71
2022/07/01 03:45:17;;;;;;;8.83;7.37;;;;;;;20.11;73.22;97050.03;5032309;28;20641;-71
2022/07/01 03:47:48;;;;;;;10.10;7.00;;;;;;;20.24;72.97;97046.28;5066670;28;20253;-71
2022/07/01 03:50:17;;;;;;;12.33;7.37;;;;;;;20.70;71.55;97037.94;5068998;28;20244;-71
2022/07/01 03:52:43;;;;;;;10.40;6.47;;;;;;;21.19;69.54;97038.94;5066914;28;20687;-71
2022/07/01 03:55:11;;;;;;;8.57;6.77;;;;;;;21.75;67.64;97050.53;5068717;28;20193;-72
2022/07/01 03:57:38;;;;;;;10.73;6.63;;;;;;;21.87;66.68;97044.19;5066192;28;20665;-73
2022/07/01 04:00:07;;;;;;;7.07;6.37;;;;;;;22.07;66.05;97048.47;5048762;28;20224;-72
2022/07/01 04:02:34;;;;;;;10.97;6.70;;;;;;;22.05;66.51;97044.34;5053469;28;20257;-73
2022/07/01 04:05:01;;;;;;;9.37;6.60;;;;;;;21.98;66.50;97048.50;5066694;28;20198;-72
2022/07/01 04:07:28;;;;;;;7.60;6.53;;;;;;;21.91;66.63;97057.94;5067722;28;20230;-73
2022/07/01 04:09:55;;;;;;;10.23;6.40;;;;;;;22.16;66.10;97049.44;5076991;28;20727;-73
2022/07/01 04:12:22;;;;;;;10.07;7.53;;;;;;;22.03;66.42;97057.63;5057295;28;20332;-73
2022/07/01 04:14:50;;;;;;;8.10;6.73;;;;;;;21.92;66.70;97065.72;5069509;28;20191;-73
2022/07/01 04:17:17;;;;;;;10.30;6.47;;;;;;;22.07;66.37;97048.47;5070106;28;20182;-73
2022/07/01 04:19:44;;;;;;;10.50;6.77;;;;;;;22.18;66.24;97064.16;5069597;28;20279;-73
2022/07/01 04:24:57;;;;;;;8.10;5.90;;;;;;;23.03;63.33;97057.00;5051579;28;20637;-74
2022/07/01 04:27:24;;;;;;;8.03;6.07;;;;;;;23.30;62.56;97056.16;5077151;28;20204;-73
2022/07/01 04:29:53;;;;;;;9.90;6.33;;;;;;;23.49;61.87;97050.78;5070892;28;20247;-74
2022/07/01 04:32:24;;;;;;;12.17;8.77;;;;;;;23.57;61.92;97058.81;5055455;28;20286;-74
2022/07/01 04:34:52;;;;;;;8.87;5.90;;;;;;;23.54;61.59;97058.25;5090276;28;20203;-74
2022/07/01 04:37:19;;;;;;;6.70;5.80;;;;;;;23.72;61.86;97067.88;5089481;28;20225;-74
2022/07/01 04:39:46;;;;;;;8.67;5.83;;;;;;;23.95;60.74;97068.25;5089626;28;20189;-75
2022/07/01 04:42:15;;;;;;;6.00;5.50;;;;;;;23.80;61.21;97052.06;5071194;28;20216;-74
2022/07/01 04:44:42;;;;;;;7.73;5.80;;;;;;;23.99;61.12;97053.72;5089590;28;20186;-74
2022/07/01 04:47:10;;;;;;;8.23;5.63;;;;;;;23.99;60.85;97059.00;5089604;28;20221;-75
2022/07/01 04:49:37;;;;;;;8.07;5.43;;;;;;;23.99;60.77;97051.09;5089425;28;20564;-74
2022/07/01 04:52:04;;;;;;;7.63;5.77;;;;;;;24.10;60.81;97067.59;5089783;28;20242;-74
2022/07/01 04:54:31;;;;;;;7.57;6.00;;;;;;;24.27;60.83;97062.44;5088963;28;20189;-74
2022/07/01 04:56:58;;;;;;;10.13;5.93;;;;;;;24.40;60.56;97065.53;5071337;28;20190;-74
2022/07/01 04:59:25;;;;;;;7.90;5.90;;;;;;;24.47;59.92;97058.59;5071116;28;20193;-74
2022/07/01 05:01:53;;;;;;;9.23;5.73;;;;;;;24.68;59.34;97059.06;5089252;28;20182;-74
2022/07/01 05:04:20;;;;;;;7.20;5.63;;;;;;;25.00;58.37;97061.91;5089084;28;20283;-75
2022/07/01 05:06:47;;;;;;;5.97;4.97;;;;;;;25.57;57.48;97061.19;5088986;28;20286;-74
2022/07/01 05:09:14;;;;;;;11.07;5.57;;;;;;;25.80;56.29;97067.50;5071255;28;20194;-73
2022/07/01 05:11:41;;;;;;;5.50;4.90;;;;;;;25.99;55.28;97065.56;5088735;28;20200;-74
2022/07/01 05:14:08;;;;;;;7.93;4.83;;;;;;;26.20;55.04;97065.91;5071442;28;20192;-74
2022/07/01 05:16:36;;;;;;;5.97;5.33;;;;;;;26.33;55.43;97052.97;5088965;28;20199;-74
2022/07/01 05:22:00;;;;;;;9.47;5.63;;;;;;;26.77;54.25;97064.88;5070533;28;20188;-73
2022/07/01 05:24:30;;;;;;;8.40;5.50;;;;;;;27.16;52.97;97068.41;5088674;28;20629;-74
2022/07/01 05:26:59;;;;;;;9.07;5.73;;;;;;;27.24;52.92;97062.25;5089024;28;20196;-74
2022/07/01 05:29:27;;;;;;;7.77;5.80;;;;;;;27.48;52.15;97050.69;5088695;28;20654;-74
2022/07/01 05:31:54;;;;;;;8.97;6.00;;;;;;;27.48;52.17;97061.34;5088925;28;20196;-74
2022/07/01 05:34:22;;;;;;;8.20;6.10;;;;;;;26.96;52.69;97051.22;5088870;28;20191;-74
2022/07/01 05:36:49;;;;;;;7.57;6.00;;;;;;;27.28;52.27;97064.41;5067060;28;20229;-74
2022/07/01 05:39:17;;;;;;;9.30;7.03;;;;;;;27.69;51.80;97059.72;5067804;28;20186;-74
2022/07/01 05:41:45;;;;;;;11.80;5.97;;;;;;;28.06;50.57;97065.16;5068381;28;20631;-74
2022/07/01 05:44:15;;;;;;;6.37;5.77;;;;;;;28.21;49.75;97051.06;5050819;28;20221;-75
2022/07/01 05:46:42;;;;;;;8.23;6.37;;;;;;;28.20;49.27;97052.91;5066636;28;20235;-73
2022/07/01 05:49:09;;;;;;;7.67;6.20;;;;;;;28.45;49.61;97056.19;5069391;28;20522;-74
2022/07/01 05:51:43;;;;;;;11.47;5.73;;;;;;;28.48;48.88;97061.16;5069924;28;20193;-75
2022/07/01 05:54:10;;;;;;;7.93;5.20;;;;;;;28.37;48.77;97065.09;5073519;28;20192;-75
2022/07/01 05:56:38;;;;;;;7.53;5.90;;;;;;;28.49;48.45;97055.63;5073065;28;20189;-74
2022/07/01 05:59:05;;;;;;;10.33;5.33;;;;;;;28.70;48.30;97065.63;5074612;28;20246;-74
2022/07/01 06:01:32;;;;;;;7.20;4.93;;;;;;;28.45;48.88;97058.84;5074804;28;20193;-74
2022/07/01 06:03:59;;;;;;;8.90;5.33;;;;;;;28.65;47.90;97052.84;5070267;28;20185;-75
2022/07/01 06:06:26;;;;;;;7.67;4.80;;;;;;;28.61;47.89;97067.53;5068610;28;20288;-73
2022/07/01 06:08:53;;;;;;;7.30;5.30;;;;;;;28.70;47.34;97060.31;5069239;28;20208;-73
2022/07/01 06:11:20;;;;;;;10.07;5.83;;;;;;;29.01;47.04;97057.47;5067468;28;20233;-73
2022/07/01 06:13:47;;;;;;;8.37;4.90;;;;;;;29.02;47.22;97053.81;5069873;28;20230;-75
2022/07/01 06:16:14;;;;;;;9.17;4.70;;;;;;;29.15;45.92;97054.00;5067475;28;20205;-74
2022/07/01 06:18:41;;;;;;;7.73;5.57;;;;;;;29.14;46.07;97050.47;5068011;28;20216;-74
2022/07/01 06:21:08;;;;;;;6.07;4.90;;;;;;;29.40;46.44;97053.50;5067139;28;20251;-74
2022/07/01 06:23:35;;;;;;;6.87;4.37;;;;;;;29.62;45.10;97054.38;5067136;28;20692;-74
2022/07/01 06:26:03;;;;;;;8.77;5.87;;;;;;;29.66;44.45;97052.97;5068807;28;20189;-75
2022/07/01 06:28:30;;;;;;;12.43;6.00;;;;;;;29.92;44.31;97050.66;5068599;28;20220;-75
2022/07/01 06:30:58;;;;;;;6.23;4.47;;;;;;;30.14;43.20;97062.97;5067601;28;20230;-75
2022/07/01 06:33:29;;;;;;;6.23;4.73;;;;;;;30.36;42.34;97059.31;5068587;28;20228;-75
2022/07/01 06:35:57;;;;;;;6.43;4.40;;;;;;;30.41;42.10;97051.53;5050860;28;20263;-75
2022/07/01 06:38:26;;;;;;;9.10;5.73;;;;;;;30.66;41.46;97057.28;5050426;28;20193;-75
2022/07/01 06:41:27;;;;;;;6.83;4.83;;;;;;;30.63;41.73;97056.84;5068516;28;20185;-75
2022/07/01 06:43:46;;;;;;;8.17;4.93;;;;;;;30.12;42.55;97059.69;5065590;28;20594;-75
2022/07/01 06:46:13;;;;;;;8.50;5.10;;;;;;;30.18;42.92;97060.75;5067771;28;20205;-74
2022/07/01 06:48:41;;;;;;;5.67;5.03;;;;;;;30.23;43.01;97061.81;5069160;28;20189;-75
2022/07/01 06:51:08;;;;;;;9.77;8.30;;;;;;;30.36;42.20;97064.66;5065516;28;20232;-75
2022/07/01 06:53:35;;;;;;;6.73;4.37;;;;;;;30.53;41.86;97063.38;5067994;28;20192;-75
2022/07/01 06:56:05;;;;;;;7.70;4.97;;;;;;;30.81;42.20;97057.19;5066323;28;20201;-75
2022/07/01 06:58:32;;;;;;;10.27;4.87;;;;;;;30.98;41.04;97063.91;5082624;28;20240;-75
2022/07/01 07:01:00;;;;;;;9.47;5.10;;;;;;;31.20;40.50;97070.84;5067336;28;20198;-76
2022/07/01 07:03:27;;;;;;;11.07;4.87;;;;;;;31.16;40.31;97062.34;5067225;28;20181;-75
2022/07/01 07:05:55;;;;;;;8.90;4.50;;;;;;;31.23;40.44;97067.75;5067146;28;20189;-75
2022/07/01 07:08:22;;;;;;;6.67;5.37;;;;;;;31.24;40.50;97066.75;5065309;28;20227;-75
2022/07/01 07:10:50;;;;;;;7.90;6.00;;;;;;;31.31;40.36;97070.25;5066115;28;20684;-75
2022/07/01 07:13:18;;;;;;;9.97;5.07;;;;;;;30.97;40.21;97067.59;5067227;28;20910;-75
2022/07/01 07:15:45;;;;;;;8.17;5.30;;;;;;;30.76;40.48;97075.66;5065456;28;20185;-75
2022/07/01 07:18:13;;;;;;;7.87;5.73;;;;;;;30.77;41.23;97064.75;5065469;28;20193;-75
2022/07/01 07:20:40;;;;;;;8.23;5.97;;;;;;;30.76;41.49;97065.78;5065306;28;20242;-75
2022/07/01 07:23:08;;;;;;;5.57;5.07;;;;;;;30.97;41.04;97054.22;5066095;28;20197;-74
2022/07/01 07:25:35;;;;;;;7.50;5.73;;;;;;;31.18;40.23;97064.84;5065770;28;20208;-75
2022/07/01 07:28:05;;;;;;;6.60;5.27;;;;;;;31.20;40.33;97066.28;5065249;28;20209;-75
2022/07/01 07:30:32;;;;;;;9.17;6.23;;;;;;;31.25;41.12;97063.03;5047739;28;20224;-75
2022/07/01 07:32:59;;;;;;;6.87;5.97;;;;;;;31.47;40.92;97064.59;5064593;28;20660;-75
2022/07/01 07:35:28;;;;;;;10.43;6.57;;;;;;;31.62;41.03;97059.09;5066368;28;20185;-75
2022/07/01 07:37:55;;;;;;;6.83;6.07;;;;;;;31.55;40.11;97052.91;5068207;28;20180;-75
2022/07/01 07:40:22;;;;;;;7.63;5.77;;;;;;;31.85;39.83;97059.59;5086774;28;20192;-75
2022/07/01 07:42:49;;;;;;;7.57;5.90;;;;;;;32.06;38.95;97060.28;5086339;28;20188;-75
2022/07/01 07:45:17;;;;;;;7.93;6.03;;;;;;;32.21;38.24;97051.22;5086619;28;20189;-75
2022/07/01 07:47:48;;;;;;;8.23;5.78;;;;;;;32.40;37.64;97059.28;5086864;28;20991;-75
2022/07/01 07:50:16;;;;;;;6.70;6.10;;;;;;;32.59;37.76;97053.13;5072611;28;20227;-75
2022/07/01 07:52:43;;;;;;;11.00;6.55;;;;;;;32.50;37.98;97049.00;5091004;28;20204;-75
2022/07/01 07:55:11;;;;;;;8.05;5.60;;;;;;;32.52;36.99;97059.53;5090517;28;20228;-75
2022/07/01 07:57:39;;;;;;;6.32;5.30;;;;;;;32.39;36.27;97060.31;5072577;28;20184;-75
2022/07/01 08:00:09;;;;;;;9.45;6.10;;;;;;;32.31;36.15;97060.53;5072569;28;20192;-75
2022/07/01 08:02:42;;;;;;;8.48;5.30;;;;;;;32.43;35.34;97058.03;5073165;28;20188;-75
2022/07/01 08:05:10;;;;;;;11.60;5.68;;;;;;;32.55;35.63;97056.41;5090249;28;20195;-74
2022/07/01 08:07:39;;;;;;;10.75;5.13;;;;;;;32.46;36.52;97057.69;5072209;28;20275;-75
2022/07/01 08:10:09;;;;;;;8.73;6.30;;;;;;;32.42;37.31;97056.41;5071768;28;20184;-75
2022/07/01 08:12:37;;;;;;;7.70;5.35;;;;;;;32.19;37.57;97054.09;5071731;28;20561;-75
2022/07/01 08:15:06;;;;;;;8.50;6.25;;;;;;;32.18;37.72;97057.00;5071822;28;20189;-75
2022/07/01 08:17:34;;;;;;;12.25;8.65;;;;;;;32.21;37.74;97060.09;5089888;28;20189;-75
2022/07/01 08:20:01;;;;;;;12.23;6.00;;;;;;;32.08;38.35;97049.34;5071764;28;20181;-74
2022/07/01 08:22:29;;;;;;;6.75;5.25;;;;;;;32.11;36.87;97054.28;5071827;28;20687;-75
2022/07/01 08:24:56;;;;;;;10.55;5.32;;;;;;;32.05;37.64;97050.59;5071559;28;20184;-75
2022/07/01 08:27:23;;;;;;;8.10;5.18;;;;;;;32.01;37.53;97065.41;5089879;28;20188;-75
2022/07/01 08:29:51;;;;;;;8.85;5.60;;;;;;;32.08;37.26;97060.91;5090330;28;20220;-74
2022/07/01 08:32:19;;;;;;;10.20;4.78;;;;;;;32.10;35.26;97071.41;5072251;28;20216;-74
2022/07/01 08:34:46;;;;;;;5.93;4.13;;;;;;;31.92;35.20;97061.25;5089895;28;20189;-76
2022/07/01 08:37:15;;;;;;;10.73;5.03;;;;;;;32.09;34.34;97078.63;5090274;28;20303;-75
2022/07/01 08:39:42;;;;;;;8.30;4.00;;;;;;;32.03;31.59;97067.88;5071473;28;20196;-75
2022/07/01 08:42:16;;;;;;;4.63;3.53;;;;;;;32.02;31.42;97067.09;5089813;28;20275;-75
2022/07/01 08:44:43;;;;;;;6.22;4.70;;;;;;;32.02;34.55;97071.63;5088787;28;20189;-75
2022/07/01 08:47:13;;;;;;;6.23;4.20;;;;;;;31.97;33.88;97069.53;5089136;28;20254;-75
2022/07/01 08:49:40;;;;;;;5.93;3.83;;;;;;;31.96;33.24;97069.75;5071311;28;20188;-75
2022/07/01 08:52:09;;;;;;;6.37;4.37;;;;;;;32.05;32.62;97077.38;5088605;28;20216;-75
2022/07/01 08:54:39;;;;;;;6.70;4.07;;;;;;;32.06;32.16;97079.06;5071247;28;20211;-75
2022/07/01 08:57:08;;;;;;;4.87;4.10;;;;;;;32.12;31.71;97077.41;5087764;28;20193;-74
2022/07/01 08:59:35;;;;;;;5.18;4.07;;;;;;;32.08;32.38;97076.16;5070475;28;20199;-74
2022/07/01 09:02:04;;;;;;;10.45;4.47;;;;;;;32.20;31.81;97084.41;5089206;28;20177;-74
2022/07/01 09:04:33;;;;;;;5.07;3.80;;;;;;;32.31;31.68;97081.16;5088984;28;20203;-74
2022/07/01 09:07:07;;;;;;;4.97;3.40;;;;;;;32.50;31.25;97073.13;5089571;28;20738;-74
2022/07/01 09:09:39;;;;;;;5.28;3.58;;;;;;;32.33;32.01;97079.09;5088549;28;20200;-74
2022/07/01 09:12:07;;;;;;;9.07;5.20;;;;;;;32.54;32.59;97066.31;5070855;28;20213;-74
2022/07/01 09:14:35;;;;;;;7.65;5.38;;;;;;;32.81;32.23;97072.50;5088350;28;20184;-74
2022/07/01 09:17:05;;;;;;;7.18;4.65;;;;;;;33.00;31.56;97069.00;5069973;28;20181;-74
2022/07/01 09:19:37;;;;;;;10.05;5.90;;;;;;;33.23;31.60;97076.59;5070130;28;20263;-74
2022/07/01 09:22:12;;;;;;;6.22;4.80;;;;;;;33.23;31.60;97072.03;5071078;28;20681;-74
2022/07/01 09:24:43;;;;;;;4.75;4.28;;;;;;;33.39;31.30;97076.94;5070138;28;20212;-74
2022/07/01 09:27:18;;;;;;;10.88;5.03;;;;;;;33.59;31.21;97066.97;5088099;28;20193;-74
2022/07/01 09:29:50;;;;;;;6.32;4.10;;;;;;;33.65;31.32;97070.69;5088157;28;20678;-75
2022/07/01 09:32:19;;;;;;;8.70;5.07;;;;;;;33.48;31.58;97059.56;5087795;28;20274;-75
2022/07/01 09:34:49;;;;;;;8.40;5.03;;;;;;;33.47;31.72;97063.28;5069198;28;20200;-75
2022/07/01 09:37:19;;;;;;;6.03;4.25;;;;;;;33.44;31.65;97066.41;5069847;28;20229;-75
2022/07/01 09:39:52;;;;;;;13.52;6.28;;;;;;;33.54;32.43;97060.59;5052840;28;20193;-74
2022/07/01 09:42:21;;;;;;;9.02;5.18;;;;;;;33.34;32.19;97057.97;5088121;28;20204;-74
2022/07/01 09:45:02;;;;;;;11.60;4.60;;;;;;;33.53;32.38;97057.09;5069265;28;20189;-74
2022/07/01 09:47:33;;;;;;;9.00;3.97;;;;;;;33.49;31.86;97049.69;5053254;28;20196;-75
2022/07/01 09:50:01;;;;;;;6.65;5.05;;;;;;;33.54;31.98;97053.38;5087943;28;20200;-75
2022/07/01 09:52:30;;;;;;;9.95;4.88;;;;;;;33.35;32.11;97053.41;5069525;28;20618;-74
2022/07/01 09:55:04;;;;;;;5.93;4.32;;;;;;;33.19;32.27;97048.50;5053248;28;20196;-75
2022/07/01 09:57:32;;;;;;;5.82;4.88;;;;;;;32.92;32.26;97047.72;5088368;28;20239;-74
2022/07/01 09:59:59;;;;;;;9.88;5.00;;;;;;;32.77;33.16;97045.25;5089002;28;20276;-75
2022/07/01 10:02:30;;;;;;;8.93;6.03;;;;;;;32.74;33.29;97040.31;5088429;28;20189;-74
2022/07/01 10:05:17;;;;;;;7.75;5.35;;;;;;;32.75;32.67;97052.69;5087984;28;20192;-75
2022/07/01 10:08:05;;;;;;;6.13;5.47;;;;;;;32.50;32.97;97046.31;5088668;28;20189;-75
2022/07/01 10:10:42;;;;;;;8.85;4.97;;;;;;;32.46;33.08;97046.94;5068216;28;20337;-75
2022/07/01 10:13:15;;;;;;;5.97;4.85;;;;;;;32.36;33.43;97036.59;5087537;28;20212;-75
2022/07/01 10:15:45;;;;;;;7.72;4.82;;;;;;;32.35;33.88;97043.00;5052750;28;20203;-75
2022/07/01 10:18:30;;;;;;;10.40;5.95;;;;;;;32.37;33.68;97048.16;5069303;28;20200;-76
2022/07/01 10:20:58;;;;;;;8.48;7.20;;;;;;;32.39;33.41;97040.72;5069838;28;20196;-75
2022/07/01 10:23:36;;;;;;;8.55;5.90;;;;;;;32.17;33.88;97044.63;5069303;28;20313;-75
2022/07/01 10:26:05;;;;;;;6.80;4.68;;;;;;;32.11;34.43;97038.22;5052792;28;20585;-75
2022/07/01 10:28:39;;;;;;;8.32;4.25;;;;;;;32.02;33.55;97042.97;5087476;28;20208;-76
2022/07/01 10:31:17;;;;;;;6.93;5.00;;;;;;;31.87;33.52;97038.78;5068453;28;20792;-75
2022/07/01 10:33:56;;;;;;;8.80;4.40;;;;;;;32.17;33.49;97053.47;5087645;28;20276;-75
2022/07/01 10:36:32;;;;;;;5.47;4.03;;;;;;;32.27;33.69;97037.00;5087441;28;20224;-75
2022/07/01 10:39:13;;;;;;;12.30;6.80;;;;;;;32.62;33.14;97051.88;5068981;28;20199;-75
2022/07/01 10:41:57;;;;;;;6.22;4.43;;;;;;;32.62;32.91;97057.25;5068695;28;20695;-75
2022/07/01 10:45:01;;;;;;;9.30;4.85;;;;;;;31.91;38.03;97062.28;5071729;28;20269;-75
2022/07/01 10:47:29;;;;;;;17.83;5.60;;;;;;;31.08;39.74;97057.16;5069051;28;20180;-74
2022/07/01 10:50:08;;;;;;;12.63;5.80;;;;;;;30.35;42.00;97057.66;5087381;28;20200;-75
2022/07/01 10:52:35;;;;;;;10.33;4.20;;;;;;;30.19;42.73;97068.56;5086726;28;20231;-75
2022/07/01 10:55:05;;;;;;;7.50;4.87;;;;;;;30.24;43.23;97055.47;5069423;28;20264;-74
2022/07/01 10:57:37;;;;;;;8.03;5.17;;;;;;;30.75;41.73;97060.66;5051964;28;20256;-74
2022/07/01 11:00:03;;;;;;;8.60;5.33;;;;;;;30.91;42.35;97052.34;5087265;28;20185;-74
2022/07/01 11:02:37;;;;;;;7.73;4.60;;;;;;;30.26;43.80;97050.75;5068411;28;20196;-74
2022/07/01 11:05:09;;;;;;;11.93;7.23;;;;;;;29.97;43.60;97045.53;5069085;28;21461;-74
2022/07/01 11:07:39;;;;;;;10.47;5.47;;;;;;;30.30;42.68;97041.38;5052510;28;20691;-74
2022/07/01 11:10:08;;;;;;;5.33;4.80;;;;;;;30.58;42.67;97033.38;5068701;28;20192;-74
2022/07/01 11:12:36;;;;;;;7.40;5.80;;;;;;;31.05;42.23;97032.66;5087059;28;20223;-74
2022/07/01 11:15:10;;;;;;;10.30;4.90;;;;;;;31.33;41.56;97038.75;5068488;28;20231;-74
2022/07/01 11:17:43;;;;;;;8.20;4.77;;;;;;;31.37;40.89;97037.34;5068752;28;20195;-74
2022/07/01 11:20:11;;;;;;;7.53;4.70;;;;;;;31.26;41.44;97029.91;5087111;28;20185;-74
2022/07/01 11:22:39;;;;;;;7.83;4.77;;;;;;;31.10;42.29;97022.19;5068023;28;20207;-74
2022/07/01 11:25:11;;;;;;;7.47;5.40;;;;;;;31.12;42.54;97030.84;5052353;28;20632;-74
2022/07/01 11:27:38;;;;;;;7.10;4.93;;;;;;;30.90;43.62;97042.66;5086009;28;20189;-74
2022/07/01 11:30:10;;;;;;;7.73;5.47;;;;;;;30.32;44.32;97033.97;5086877;28;20238;-74
2022/07/01 11:32:42;;;;;;;9.47;5.23;;;;;;;30.91;44.01;97036.28;5051685;28;20270;-74
2022/07/01 11:41:26;;;;;;;7.37;5.00;;;;;;;31.44;42.10;97021.34;5086116;28;20191;-74
2022/07/01 11:43:53;;;;;;;7.93;5.23;;;;;;;31.50;44.27;97025.88;5068443;28;20241;-74
2022/07/01 11:46:21;;;;;;;9.30;5.27;;;;;;;31.44;43.24;97024.00;5068090;28;20192;-74
2022/07/01 11:48:50;;;;;;;11.50;5.60;;;;;;;31.50;43.04;97029.41;5086244;28;20203;-74
2022/07/01 11:51:20;;;;;;;8.23;5.17;;;;;;;31.31;44.16;97027.44;5086921;28;20212;-74
2022/07/01 11:53:50;;;;;;;6.67;5.17;;;;;;;31.36;42.86;97022.31;5086494;28;20261;-75